sensor_id;sensor_type;location;lat;lon;timestamp;P1;durP1;ratioP1;P2;durP2;ratioP2
19593;SDS011;9944;48.240;16.478;2023-05-10T00:01:24;2.22;;;1.42;;
19593;SDS011;9944;48.240;16.478;2023-05-10T00:05:27;1.50;;;1.38;;
19593;SDS011;9944;48.240;16.478;2023-05-10T00:09:30;9.00;;;1.52;;
19593;SDS011;9944;48.240;16.478;2023-05-10T00:13:33;2.00;;;1.63;;
19593;SDS011;9944;48.240;16.478;2023-05-10T00:17:37;3.08;;;1.50;;
19593;SDS011;9944;48.240;16.478;2023-05-10T00:21:41;2.15;;;1.25;;
19593;SDS011;9944;48.240;16.478;2023-05-10T00:25:44;2.67;;;1.48;;
19593;SDS011;9944;48.240;16.478;2023-05-10T00:29:47;2.80;;;1.60;;
19593;SDS011;9944;48.240;16.478;2023-05-10T00:33:51;2.67;;;1.60;;
19593;SDS011;9944;48.240;16.478;2023-05-10T00:37:54;2.25;;;1.60;;
19593;SDS011;9944;48.240;16.478;2023-05-10T00:41:57;3.75;;;1.40;;
19593;SDS011;9944;48.240;16.478;2023-05-10T00:46:02;3.45;;;1.48;;
19593;SDS011;9944;48.240;16.478;2023-05-10T00:50:08;2.28;;;1.50;;
19593;SDS011;9944;48.240;16.478;2023-05-10T00:54:12;1.77;;;1.42;;
19593;SDS011;9944;48.240;16.478;2023-05-10T00:58:17;2.83;;;1.30;;
19593;SDS011;9944;48.240;16.478;2023-05-10T01:02:20;2.13;;;1.65;;
19593;SDS011;9944;48.240;16.478;2023-05-10T01:06:25;1.88;;;1.52;;
19593;SDS011;9944;48.240;16.478;2023-05-10T01:10:29;1.85;;;1.42;;
19593;SDS011;9944;48.240;16.478;2023-05-10T01:14:33;1.80;;;1.50;;
19593;SDS011;9944;48.240;16.478;2023-05-10T01:18:39;1.50;;;1.40;;
19593;SDS011;9944;48.240;16.478;2023-05-10T01:22:53;2.08;;;1.70;;
19593;SDS011;9944;48.240;16.478;2023-05-10T01:36:35;3.22;;;1.77;;
19593;SDS011;9944;48.240;16.478;2023-05-10T01:40:48;3.38;;;1.70;;
19593;SDS011;9944;48.240;16.478;2023-05-10T01:44:58;2.00;;;1.55;;
19593;SDS011;9944;48.240;16.478;2023-05-10T01:49:07;2.45;;;1.70;;
19593;SDS011;9944;48.240;16.478;2023-05-10T01:53:17;2.30;;;1.67;;
19593;SDS011;9944;48.240;16.478;2023-05-10T01:57:22;3.15;;;2.28;;
19593;SDS011;9944;48.240;16.478;2023-05-10T02:01:29;2.97;;;2.10;;
19593;SDS011;9944;48.240;16.478;2023-05-10T02:05:34;3.50;;;1.98;;
19593;SDS011;9944;48.240;16.478;2023-05-10T02:09:39;3.45;;;1.92;;
19593;SDS011;9944;48.240;16.478;2023-05-10T02:13:43;2.45;;;2.00;;
19593;SDS011;9944;48.240;16.478;2023-05-10T02:17:49;2.55;;;1.83;;
19593;SDS011;9944;48.240;16.478;2023-05-10T02:21:54;3.05;;;2.00;;
19593;SDS011;9944;48.240;16.478;2023-05-10T02:25:58;2.28;;;1.92;;
19593;SDS011;9944;48.240;16.478;2023-05-10T02:30:03;3.20;;;2.00;;
19593;SDS011;9944;48.240;16.478;2023-05-10T02:34:08;2.15;;;1.90;;
19593;SDS011;9944;48.240;16.478;2023-05-10T02:38:15;2.25;;;1.73;;
19593;SDS011;9944;48.240;16.478;2023-05-10T02:42:20;3.42;;;2.40;;
19593;SDS011;9944;48.240;16.478;2023-05-10T02:46:27;2.95;;;2.10;;
19593;SDS011;9944;48.240;16.478;2023-05-10T02:50:31;2.65;;;2.00;;
19593;SDS011;9944;48.240;16.478;2023-05-10T02:54:38;2.65;;;2.10;;
19593;SDS011;9944;48.240;16.478;2023-05-10T02:58:46;3.42;;;2.30;;
19593;SDS011;9944;48.240;16.478;2023-05-10T03:02:49;2.20;;;1.95;;
19593;SDS011;9944;48.240;16.478;2023-05-10T03:06:52;3.05;;;2.25;;
19593;SDS011;9944;48.240;16.478;2023-05-10T03:11:01;2.80;;;2.17;;
19593;SDS011;9944;48.240;16.478;2023-05-10T03:15:22;2.50;;;1.95;;
19593;SDS011;9944;48.240;16.478;2023-05-10T03:19:35;3.45;;;2.30;;
19593;SDS011;9944;48.240;16.478;2023-05-10T03:23:46;3.78;;;2.40;;
19593;SDS011;9944;48.240;16.478;2023-05-10T03:27:54;3.53;;;2.50;;
19593;SDS011;9944;48.240;16.478;2023-05-10T03:32:00;3.50;;;2.50;;
19593;SDS011;9944;48.240;16.478;2023-05-10T03:36:05;3.78;;;2.47;;
19593;SDS011;9944;48.240;16.478;2023-05-10T03:40:09;3.92;;;2.30;;
19593;SDS011;9944;48.240;16.478;2023-05-10T03:48:37;5.13;;;2.63;;
19593;SDS011;9944;48.240;16.478;2023-05-10T03:52:41;3.33;;;2.40;;
19593;SDS011;9944;48.240;16.478;2023-05-10T03:56:44;3.65;;;2.70;;
19593;SDS011;9944;48.240;16.478;2023-05-10T04:00:52;5.18;;;2.80;;
19593;SDS011;9944;48.240;16.478;2023-05-10T04:04:55;3.65;;;2.60;;
19593;SDS011;9944;48.240;16.478;2023-05-10T04:08:58;3.10;;;2.53;;
19593;SDS011;9944;48.240;16.478;2023-05-10T04:18:45;5.40;;;2.95;;
19593;SDS011;9944;48.240;16.478;2023-05-10T04:22:50;3.67;;;2.30;;
19593;SDS011;9944;48.240;16.478;2023-05-10T04:27:15;3.70;;;2.58;;
19593;SDS011;9944;48.240;16.478;2023-05-10T04:31:23;3.90;;;2.88;;
19593;SDS011;9944;48.240;16.478;2023-05-10T04:47:10;4.75;;;2.85;;
19593;SDS011;9944;48.240;16.478;2023-05-10T04:58:27;4.05;;;2.78;;
19593;SDS011;9944;48.240;16.478;2023-05-10T05:07:54;2.80;;;2.50;;
19593;SDS011;9944;48.240;16.478;2023-05-10T05:12:24;4.32;;;2.58;;
19593;SDS011;9944;48.240;16.478;2023-05-10T05:23:21;4.45;;;2.70;;
19593;SDS011;9944;48.240;16.478;2023-05-10T05:27:48;4.47;;;2.53;;
19593;SDS011;9944;48.240;16.478;2023-05-10T05:32:05;3.70;;;2.83;;
19593;SDS011;9944;48.240;16.478;2023-05-10T05:43:22;4.55;;;3.28;;
19593;SDS011;9944;48.240;16.478;2023-05-10T05:47:26;3.58;;;2.72;;
19593;SDS011;9944;48.240;16.478;2023-05-10T05:51:29;4.55;;;2.85;;
19593;SDS011;9944;48.240;16.478;2023-05-10T05:55:33;3.60;;;2.63;;
19593;SDS011;9944;48.240;16.478;2023-05-10T05:59:38;3.05;;;2.42;;
19593;SDS011;9944;48.240;16.478;2023-05-10T06:03:43;4.00;;;2.70;;
19593;SDS011;9944;48.240;16.478;2023-05-10T06:07:46;4.40;;;2.80;;
19593;SDS011;9944;48.240;16.478;2023-05-10T06:11:49;5.28;;;2.80;;
19593;SDS011;9944;48.240;16.478;2023-05-10T06:15:54;4.63;;;2.72;;
19593;SDS011;9944;48.240;16.478;2023-05-10T06:19:57;3.85;;;2.67;;
19593;SDS011;9944;48.240;16.478;2023-05-10T06:24:00;3.28;;;2.53;;
19593;SDS011;9944;48.240;16.478;2023-05-10T06:28:04;4.60;;;2.78;;
19593;SDS011;9944;48.240;16.478;2023-05-10T06:32:08;2.72;;;2.08;;
19593;SDS011;9944;48.240;16.478;2023-05-10T06:36:11;3.13;;;2.20;;
19593;SDS011;9944;48.240;16.478;2023-05-10T06:40:15;4.13;;;2.88;;
19593;SDS011;9944;48.240;16.478;2023-05-10T06:44:19;4.15;;;2.13;;
19593;SDS011;9944;48.240;16.478;2023-05-10T06:48:23;3.97;;;2.60;;
19593;SDS011;9944;48.240;16.478;2023-05-10T06:52:26;5.30;;;2.85;;
19593;SDS011;9944;48.240;16.478;2023-05-10T06:56:29;3.72;;;2.83;;
19593;SDS011;9944;48.240;16.478;2023-05-10T07:00:32;3.08;;;2.40;;
19593;SDS011;9944;48.240;16.478;2023-05-10T07:04:37;4.05;;;2.67;;
19593;SDS011;9944;48.240;16.478;2023-05-10T07:08:41;3.92;;;2.83;;
19593;SDS011;9944;48.240;16.478;2023-05-10T07:12:44;4.45;;;3.10;;
19593;SDS011;9944;48.240;16.478;2023-05-10T07:16:47;4.95;;;2.80;;
19593;SDS011;9944;48.240;16.478;2023-05-10T07:20:52;4.45;;;3.05;;
19593;SDS011;9944;48.240;16.478;2023-05-10T07:24:55;4.60;;;2.90;;
19593;SDS011;9944;48.240;16.478;2023-05-10T07:28:58;4.18;;;3.10;;
19593;SDS011;9944;48.240;16.478;2023-05-10T07:33:01;4.68;;;2.80;;
19593;SDS011;9944;48.240;16.478;2023-05-10T07:37:06;4.30;;;3.10;;
19593;SDS011;9944;48.240;16.478;2023-05-10T07:41:09;4.28;;;2.70;;
19593;SDS011;9944;48.240;16.478;2023-05-10T07:45:12;4.57;;;2.83;;
19593;SDS011;9944;48.240;16.478;2023-05-10T07:49:15;6.47;;;2.90;;
19593;SDS011;9944;48.240;16.478;2023-05-10T07:53:20;3.75;;;3.00;;
19593;SDS011;9944;48.240;16.478;2023-05-10T07:57:23;5.20;;;3.08;;
19593;SDS011;9944;48.240;16.478;2023-05-10T08:01:26;5.15;;;2.85;;
19593;SDS011;9944;48.240;16.478;2023-05-10T08:05:32;3.90;;;2.80;;
19593;SDS011;9944;48.240;16.478;2023-05-10T08:09:37;2.70;;;2.10;;
19593;SDS011;9944;48.240;16.478;2023-05-10T08:13:40;3.63;;;2.85;;
19593;SDS011;9944;48.240;16.478;2023-05-10T08:17:43;3.47;;;2.40;;
19593;SDS011;9944;48.240;16.478;2023-05-10T08:21:47;3.78;;;2.10;;
19593;SDS011;9944;48.240;16.478;2023-05-10T08:25:51;4.28;;;2.08;;
19593;SDS011;9944;48.240;16.478;2023-05-10T08:29:54;2.40;;;1.90;;
19593;SDS011;9944;48.240;16.478;2023-05-10T08:33:57;3.10;;;1.80;;
19593;SDS011;9944;48.240;16.478;2023-05-10T08:38:01;4.15;;;1.75;;
19593;SDS011;9944;48.240;16.478;2023-05-10T08:42:06;1.52;;;1.40;;
19593;SDS011;9944;48.240;16.478;2023-05-10T08:46:11;3.20;;;1.60;;
19593;SDS011;9944;48.240;16.478;2023-05-10T08:50:19;1.95;;;1.50;;
19593;SDS011;9944;48.240;16.478;2023-05-10T08:54:24;2.38;;;1.42;;
19593;SDS011;9944;48.240;16.478;2023-05-10T08:58:28;3.13;;;1.70;;
19593;SDS011;9944;48.240;16.478;2023-05-10T09:02:32;1.63;;;1.30;;
19593;SDS011;9944;48.240;16.478;2023-05-10T09:06:36;2.05;;;1.50;;
19593;SDS011;9944;48.240;16.478;2023-05-10T09:10:39;1.60;;;1.30;;
19593;SDS011;9944;48.240;16.478;2023-05-10T09:14:46;1.48;;;1.20;;
19593;SDS011;9944;48.240;16.478;2023-05-10T09:18:49;1.70;;;1.52;;
19593;SDS011;9944;48.240;16.478;2023-05-10T09:22:53;3.33;;;1.52;;
19593;SDS011;9944;48.240;16.478;2023-05-10T09:26:56;1.80;;;1.33;;
19593;SDS011;9944;48.240;16.478;2023-05-10T09:31:01;1.23;;;1.05;;
19593;SDS011;9944;48.240;16.478;2023-05-10T09:35:08;5.85;;;1.33;;
19593;SDS011;9944;48.240;16.478;2023-05-10T09:39:11;1.90;;;1.30;;
19593;SDS011;9944;48.240;16.478;2023-05-10T09:43:14;1.55;;;1.30;;
19593;SDS011;9944;48.240;16.478;2023-05-10T09:47:19;8.73;;;5.55;;
19593;SDS011;9944;48.240;16.478;2023-05-10T09:51:22;1.48;;;1.38;;
19593;SDS011;9944;48.240;16.478;2023-05-10T09:55:37;3.17;;;2.45;;
19593;SDS011;9944;48.240;16.478;2023-05-10T09:59:42;1.73;;;1.63;;
19593;SDS011;9944;48.240;16.478;2023-05-10T10:03:47;2.47;;;1.20;;
19593;SDS011;9944;48.240;16.478;2023-05-10T10:07:52;2.63;;;1.25;;
19593;SDS011;9944;48.240;16.478;2023-05-10T10:11:55;2.78;;;1.17;;
19593;SDS011;9944;48.240;16.478;2023-05-10T10:15:58;2.55;;;1.17;;
19593;SDS011;9944;48.240;16.478;2023-05-10T10:20:03;3.25;;;1.83;;
19593;SDS011;9944;48.240;16.478;2023-05-10T10:24:10;1.80;;;1.40;;
19593;SDS011;9944;48.240;16.478;2023-05-10T10:28:16;1.33;;;1.20;;
19593;SDS011;9944;48.240;16.478;2023-05-10T10:32:32;1.55;;;1.27;;
19593;SDS011;9944;48.240;16.478;2023-05-10T10:36:46;1.35;;;1.20;;
19593;SDS011;9944;48.240;16.478;2023-05-10T10:40:52;2.42;;;1.23;;
19593;SDS011;9944;48.240;16.478;2023-05-10T10:45:11;1.40;;;1.30;;
19593;SDS011;9944;48.240;16.478;2023-05-10T10:49:15;1.30;;;1.20;;
19593;SDS011;9944;48.240;16.478;2023-05-10T10:53:20;1.92;;;1.25;;
19593;SDS011;9944;48.240;16.478;2023-05-10T10:57:24;2.72;;;1.45;;
19593;SDS011;9944;48.240;16.478;2023-05-10T11:01:32;4.35;;;1.50;;
19593;SDS011;9944;48.240;16.478;2023-05-10T11:05:37;2.13;;;1.40;;
19593;SDS011;9944;48.240;16.478;2023-05-10T11:09:43;1.38;;;1.00;;
19593;SDS011;9944;48.240;16.478;2023-05-10T11:13:46;1.17;;;1.08;;
19593;SDS011;9944;48.240;16.478;2023-05-10T11:17:52;1.38;;;1.17;;
19593;SDS011;9944;48.240;16.478;2023-05-10T11:22:11;1.25;;;1.10;;
19593;SDS011;9944;48.240;16.478;2023-05-10T11:26:17;1.20;;;1.10;;
19593;SDS011;9944;48.240;16.478;2023-05-10T11:30:24;2.55;;;1.30;;
19593;SDS011;9944;48.240;16.478;2023-05-10T11:34:28;1.50;;;1.15;;
19593;SDS011;9944;48.240;16.478;2023-05-10T11:38:32;1.55;;;1.02;;
19593;SDS011;9944;48.240;16.478;2023-05-10T11:42:37;1.40;;;1.30;;
19593;SDS011;9944;48.240;16.478;2023-05-10T11:46:40;1.60;;;1.27;;
19593;SDS011;9944;48.240;16.478;2023-05-10T11:50:43;1.27;;;1.17;;
19593;SDS011;9944;48.240;16.478;2023-05-10T11:54:50;2.13;;;1.10;;
19593;SDS011;9944;48.240;16.478;2023-05-10T11:58:55;1.73;;;1.10;;
19593;SDS011;9944;48.240;16.478;2023-05-10T12:03:00;1.20;;;1.10;;
19593;SDS011;9944;48.240;16.478;2023-05-10T12:07:04;1.50;;;1.20;;
19593;SDS011;9944;48.240;16.478;2023-05-10T12:11:08;1.10;;;1.00;;
19593;SDS011;9944;48.240;16.478;2023-05-10T12:15:16;2.22;;;1.20;;
19593;SDS011;9944;48.240;16.478;2023-05-10T12:19:21;1.20;;;1.10;;
19593;SDS011;9944;48.240;16.478;2023-05-10T12:23:24;1.20;;;1.10;;
19593;SDS011;9944;48.240;16.478;2023-05-10T12:27:31;1.55;;;1.20;;
19593;SDS011;9944;48.240;16.478;2023-05-10T12:31:47;3.78;;;1.70;;
19593;SDS011;9944;48.240;16.478;2023-05-10T12:35:53;1.90;;;1.20;;
19593;SDS011;9944;48.240;16.478;2023-05-10T12:39:57;1.85;;;1.38;;
19593;SDS011;9944;48.240;16.478;2023-05-10T12:44:00;1.30;;;1.20;;
19593;SDS011;9944;48.240;16.478;2023-05-10T12:48:05;1.73;;;1.63;;
19593;SDS011;9944;48.240;16.478;2023-05-10T12:52:08;1.75;;;1.50;;
19593;SDS011;9944;48.240;16.478;2023-05-10T12:56:11;2.55;;;1.50;;
19593;SDS011;9944;48.240;16.478;2023-05-10T13:00:14;1.73;;;1.58;;
19593;SDS011;9944;48.240;16.478;2023-05-10T13:04:20;5.53;;;1.40;;
19593;SDS011;9944;48.240;16.478;2023-05-10T13:08:24;1.60;;;1.50;;
19593;SDS011;9944;48.240;16.478;2023-05-10T13:12:27;1.92;;;1.70;;
19593;SDS011;9944;48.240;16.478;2023-05-10T13:16:30;1.77;;;1.67;;
19593;SDS011;9944;48.240;16.478;2023-05-10T13:20:35;5.82;;;2.05;;
19593;SDS011;9944;48.240;16.478;2023-05-10T13:24:38;2.08;;;1.50;;
19593;SDS011;9944;48.240;16.478;2023-05-10T13:28:41;1.85;;;1.75;;
19593;SDS011;9944;48.240;16.478;2023-05-10T13:32:45;1.83;;;1.67;;
19593;SDS011;9944;48.240;16.478;2023-05-10T13:36:49;2.38;;;2.00;;
19593;SDS011;9944;48.240;16.478;2023-05-10T13:40:52;2.00;;;1.80;;
19593;SDS011;9944;48.240;16.478;2023-05-10T13:44:56;2.03;;;1.67;;
19593;SDS011;9944;48.240;16.478;2023-05-10T13:48:59;1.60;;;1.50;;
19593;SDS011;9944;48.240;16.478;2023-05-10T13:53:03;2.03;;;1.60;;
19593;SDS011;9944;48.240;16.478;2023-05-10T13:57:07;1.33;;;1.20;;
19593;SDS011;9944;48.240;16.478;2023-05-10T14:01:10;2.25;;;1.60;;
19593;SDS011;9944;48.240;16.478;2023-05-10T14:05:13;1.38;;;1.20;;
19593;SDS011;9944;48.240;16.478;2023-05-10T14:09:20;1.50;;;1.30;;
19593;SDS011;9944;48.240;16.478;2023-05-10T14:13:23;1.40;;;1.30;;
19593;SDS011;9944;48.240;16.478;2023-05-10T14:17:27;1.40;;;1.30;;
19593;SDS011;9944;48.240;16.478;2023-05-10T14:21:30;2.92;;;1.33;;
19593;SDS011;9944;48.240;16.478;2023-05-10T14:25:35;1.70;;;1.42;;
19593;SDS011;9944;48.240;16.478;2023-05-10T14:29:39;2.85;;;1.10;;
19593;SDS011;9944;48.240;16.478;2023-05-10T14:33:42;1.77;;;1.20;;
19593;SDS011;9944;48.240;16.478;2023-05-10T14:37:45;1.65;;;1.25;;
19593;SDS011;9944;48.240;16.478;2023-05-10T14:41:50;1.70;;;1.35;;
19593;SDS011;9944;48.240;16.478;2023-05-10T14:45:54;1.23;;;1.13;;
19593;SDS011;9944;48.240;16.478;2023-05-10T14:49:57;1.30;;;1.00;;
19593;SDS011;9944;48.240;16.478;2023-05-10T14:54:00;3.28;;;1.23;;
19593;SDS011;9944;48.240;16.478;2023-05-10T14:58:05;3.40;;;1.10;;
19593;SDS011;9944;48.240;16.478;2023-05-10T15:02:08;2.70;;;1.10;;
19593;SDS011;9944;48.240;16.478;2023-05-10T15:06:13;1.10;;;1.00;;
19593;SDS011;9944;48.240;16.478;2023-05-10T15:10:17;2.35;;;1.10;;
19593;SDS011;9944;48.240;16.478;2023-05-10T15:14:22;1.85;;;1.30;;
19593;SDS011;9944;48.240;16.478;2023-05-10T15:18:25;2.45;;;1.30;;
19593;SDS011;9944;48.240;16.478;2023-05-10T15:22:28;0.98;;;0.90;;
19593;SDS011;9944;48.240;16.478;2023-05-10T15:26:34;2.58;;;1.20;;
19593;SDS011;9944;48.240;16.478;2023-05-10T15:30:39;1.30;;;1.20;;
19593;SDS011;9944;48.240;16.478;2023-05-10T15:34:42;1.50;;;1.30;;
19593;SDS011;9944;48.240;16.478;2023-05-10T15:38:45;1.20;;;1.10;;
19593;SDS011;9944;48.240;16.478;2023-05-10T15:42:48;1.25;;;1.13;;
19593;SDS011;9944;48.240;16.478;2023-05-10T15:46:52;1.20;;;1.02;;
19593;SDS011;9944;48.240;16.478;2023-05-10T15:50:56;1.30;;;1.20;;
19593;SDS011;9944;48.240;16.478;2023-05-10T15:54:59;1.42;;;1.20;;
19593;SDS011;9944;48.240;16.478;2023-05-10T15:59:02;1.42;;;1.17;;
19593;SDS011;9944;48.240;16.478;2023-05-10T16:03:08;2.72;;;1.35;;
19593;SDS011;9944;48.240;16.478;2023-05-10T16:07:11;1.67;;;1.40;;
19593;SDS011;9944;48.240;16.478;2023-05-10T16:11:14;1.42;;;1.27;;
19593;SDS011;9944;48.240;16.478;2023-05-10T16:15:17;1.52;;;1.40;;
19593;SDS011;9944;48.240;16.478;2023-05-10T16:19:23;3.38;;;1.20;;
19593;SDS011;9944;48.240;16.478;2023-05-10T16:23:30;2.97;;;1.20;;
19593;SDS011;9944;48.240;16.478;2023-05-10T16:27:33;1.75;;;1.27;;
19593;SDS011;9944;48.240;16.478;2023-05-10T16:31:37;3.53;;;1.33;;
19593;SDS011;9944;48.240;16.478;2023-05-10T16:35:41;2.00;;;1.20;;
19593;SDS011;9944;48.240;16.478;2023-05-10T16:39:44;1.55;;;1.23;;
19593;SDS011;9944;48.240;16.478;2023-05-10T16:43:47;1.30;;;1.10;;
19593;SDS011;9944;48.240;16.478;2023-05-10T16:47:51;2.08;;;1.58;;
19593;SDS011;9944;48.240;16.478;2023-05-10T16:51:56;1.30;;;1.20;;
19593;SDS011;9944;48.240;16.478;2023-05-10T16:56:00;1.40;;;1.30;;
19593;SDS011;9944;48.240;16.478;2023-05-10T17:00:04;1.50;;;1.20;;
19593;SDS011;9944;48.240;16.478;2023-05-10T17:04:09;1.30;;;1.20;;
19593;SDS011;9944;48.240;16.478;2023-05-10T17:08:13;1.33;;;1.20;;
19593;SDS011;9944;48.240;16.478;2023-05-10T17:12:17;1.35;;;1.25;;
19593;SDS011;9944;48.240;16.478;2023-05-10T17:16:20;3.30;;;1.55;;
19593;SDS011;9944;48.240;16.478;2023-05-10T17:20:23;1.35;;;1.25;;
19593;SDS011;9944;48.240;16.478;2023-05-10T17:24:28;1.75;;;1.40;;
19593;SDS011;9944;48.240;16.478;2023-05-10T17:28:31;2.00;;;1.20;;
19593;SDS011;9944;48.240;16.478;2023-05-10T17:32:34;1.90;;;1.70;;
19593;SDS011;9944;48.240;16.478;2023-05-10T17:36:37;1.63;;;1.10;;
19593;SDS011;9944;48.240;16.478;2023-05-10T17:40:42;1.42;;;1.33;;
19593;SDS011;9944;48.240;16.478;2023-05-10T17:44:45;5.55;;;1.23;;
19593;SDS011;9944;48.240;16.478;2023-05-10T17:48:48;1.52;;;1.35;;
19593;SDS011;9944;48.240;16.478;2023-05-10T17:52:51;1.88;;;1.35;;
19593;SDS011;9944;48.240;16.478;2023-05-10T17:56:56;1.30;;;1.20;;
19593;SDS011;9944;48.240;16.478;2023-05-10T18:01:01;2.55;;;1.52;;
19593;SDS011;9944;48.240;16.478;2023-05-10T18:05:05;1.33;;;1.23;;
19593;SDS011;9944;48.240;16.478;2023-05-10T18:09:09;2.42;;;1.45;;
19593;SDS011;9944;48.240;16.478;2023-05-10T18:13:13;2.92;;;2.00;;
19593;SDS011;9944;48.240;16.478;2023-05-10T18:17:16;1.70;;;1.60;;
19593;SDS011;9944;48.240;16.478;2023-05-10T18:21:19;4.28;;;1.42;;
19593;SDS011;9944;48.240;16.478;2023-05-10T18:25:23;2.55;;;1.75;;
19593;SDS011;9944;48.240;16.478;2023-05-10T18:29:27;2.00;;;1.30;;
19593;SDS011;9944;48.240;16.478;2023-05-10T18:33:30;3.85;;;2.40;;
19593;SDS011;9944;48.240;16.478;2023-05-10T18:37:33;2.28;;;1.77;;
19593;SDS011;9944;48.240;16.478;2023-05-10T18:41:37;2.70;;;1.50;;
19593;SDS011;9944;48.240;16.478;2023-05-10T18:45:41;1.60;;;1.50;;
19593;SDS011;9944;48.240;16.478;2023-05-10T18:49:44;2.42;;;1.40;;
19593;SDS011;9944;48.240;16.478;2023-05-10T18:53:47;3.25;;;1.20;;
19593;SDS011;9944;48.240;16.478;2023-05-10T18:57:50;1.50;;;1.40;;
19593;SDS011;9944;48.240;16.478;2023-05-10T19:01:55;2.38;;;1.45;;
19593;SDS011;9944;48.240;16.478;2023-05-10T19:05:58;2.40;;;1.40;;
19593;SDS011;9944;48.240;16.478;2023-05-10T19:10:01;1.50;;;1.40;;
19593;SDS011;9944;48.240;16.478;2023-05-10T19:14:05;1.90;;;1.40;;
19593;SDS011;9944;48.240;16.478;2023-05-10T19:18:09;3.70;;;1.30;;
19593;SDS011;9944;48.240;16.478;2023-05-10T19:22:15;2.78;;;1.52;;
19593;SDS011;9944;48.240;16.478;2023-05-10T19:26:36;1.80;;;1.40;;
19593;SDS011;9944;48.240;16.478;2023-05-10T19:30:40;2.58;;;1.60;;
19593;SDS011;9944;48.240;16.478;2023-05-10T19:34:44;2.67;;;1.88;;
19593;SDS011;9944;48.240;16.478;2023-05-10T19:38:47;1.77;;;1.50;;
19593;SDS011;9944;48.240;16.478;2023-05-10T19:42:53;1.80;;;1.58;;
19593;SDS011;9944;48.240;16.478;2023-05-10T19:46:57;1.60;;;1.48;;
19593;SDS011;9944;48.240;16.478;2023-05-10T19:51:03;2.17;;;1.50;;
19593;SDS011;9944;48.240;16.478;2023-05-10T19:55:14;5.50;;;1.33;;
19593;SDS011;9944;48.240;16.478;2023-05-10T19:59:28;1.98;;;1.40;;
19593;SDS011;9944;48.240;16.478;2023-05-10T20:03:32;1.58;;;1.30;;
19593;SDS011;9944;48.240;16.478;2023-05-10T20:07:36;2.10;;;1.60;;
19593;SDS011;9944;48.240;16.478;2023-05-10T20:11:39;1.98;;;1.60;;
19593;SDS011;9944;48.240;16.478;2023-05-10T20:15:42;2.28;;;1.65;;
19593;SDS011;9944;48.240;16.478;2023-05-10T20:19:45;2.15;;;1.60;;
19593;SDS011;9944;48.240;16.478;2023-05-10T20:23:50;2.95;;;1.75;;
19593;SDS011;9944;48.240;16.478;2023-05-10T20:27:53;2.78;;;2.05;;
19593;SDS011;9944;48.240;16.478;2023-05-10T20:31:56;2.55;;;1.70;;
19593;SDS011;9944;48.240;16.478;2023-05-10T20:35:59;2.03;;;1.60;;
19593;SDS011;9944;48.240;16.478;2023-05-10T20:40:04;2.53;;;1.80;;
19593;SDS011;9944;48.240;16.478;2023-05-10T20:44:08;2.10;;;1.60;;
19593;SDS011;9944;48.240;16.478;2023-05-10T20:48:11;2.28;;;1.50;;
19593;SDS011;9944;48.240;16.478;2023-05-10T20:52:14;2.10;;;1.75;;
19593;SDS011;9944;48.240;16.478;2023-05-10T20:56:19;2.15;;;1.80;;
19593;SDS011;9944;48.240;16.478;2023-05-10T21:00:22;2.67;;;1.90;;
19593;SDS011;9944;48.240;16.478;2023-05-10T21:04:25;1.92;;;1.65;;
19593;SDS011;9944;48.240;16.478;2023-05-10T21:08:29;3.13;;;1.90;;
19593;SDS011;9944;48.240;16.478;2023-05-10T21:12:33;2.17;;;1.98;;
19593;SDS011;9944;48.240;16.478;2023-05-10T21:16:36;2.10;;;1.60;;
19593;SDS011;9944;48.240;16.478;2023-05-10T21:20:39;3.72;;;1.75;;
19593;SDS011;9944;48.240;16.478;2023-05-10T21:24:42;2.35;;;1.85;;
19593;SDS011;9944;48.240;16.478;2023-05-10T21:28:47;3.28;;;2.20;;
19593;SDS011;9944;48.240;16.478;2023-05-10T21:32:50;2.03;;;1.70;;
19593;SDS011;9944;48.240;16.478;2023-05-10T21:36:54;2.25;;;1.98;;
19593;SDS011;9944;48.240;16.478;2023-05-10T21:40:57;3.05;;;1.85;;
19593;SDS011;9944;48.240;16.478;2023-05-10T21:45:02;2.95;;;2.00;;
19593;SDS011;9944;48.240;16.478;2023-05-10T21:49:05;2.17;;;1.80;;
19593;SDS011;9944;48.240;16.478;2023-05-10T21:53:08;2.60;;;2.03;;
19593;SDS011;9944;48.240;16.478;2023-05-10T21:57:12;2.00;;;1.60;;
19593;SDS011;9944;48.240;16.478;2023-05-10T22:01:16;2.13;;;1.80;;
19593;SDS011;9944;48.240;16.478;2023-05-10T22:05:21;2.55;;;1.80;;
19593;SDS011;9944;48.240;16.478;2023-05-10T22:09:24;2.10;;;1.60;;
19593;SDS011;9944;48.240;16.478;2023-05-10T22:13:27;1.88;;;1.50;;
19593;SDS011;9944;48.240;16.478;2023-05-10T22:17:31;2.55;;;1.60;;
19593;SDS011;9944;48.240;16.478;2023-05-10T22:21:37;1.67;;;1.52;;
19593;SDS011;9944;48.240;16.478;2023-05-10T22:25:40;3.13;;;1.60;;
19593;SDS011;9944;48.240;16.478;2023-05-10T22:29:43;2.72;;;1.60;;
19593;SDS011;9944;48.240;16.478;2023-05-10T22:33:48;2.00;;;1.67;;
19593;SDS011;9944;48.240;16.478;2023-05-10T22:37:51;4.90;;;1.50;;
19593;SDS011;9944;48.240;16.478;2023-05-10T22:41:54;2.10;;;1.60;;
19593;SDS011;9944;48.240;16.478;2023-05-10T22:45:57;2.92;;;1.40;;
19593;SDS011;9944;48.240;16.478;2023-05-10T22:50:02;2.42;;;1.60;;
19593;SDS011;9944;48.240;16.478;2023-05-10T22:54:05;3.33;;;1.70;;
19593;SDS011;9944;48.240;16.478;2023-05-10T22:58:08;2.33;;;1.58;;
19593;SDS011;9944;48.240;16.478;2023-05-10T23:02:12;2.45;;;1.65;;
19593;SDS011;9944;48.240;16.478;2023-05-10T23:06:18;1.92;;;1.73;;
19593;SDS011;9944;48.240;16.478;2023-05-10T23:10:21;1.75;;;1.50;;
19593;SDS011;9944;48.240;16.478;2023-05-10T23:14:24;1.60;;;1.50;;
19593;SDS011;9944;48.240;16.478;2023-05-10T23:18:28;1.92;;;1.50;;
19593;SDS011;9944;48.240;16.478;2023-05-10T23:22:32;2.08;;;1.60;;
19593;SDS011;9944;48.240;16.478;2023-05-10T23:26:35;2.80;;;1.80;;
19593;SDS011;9944;48.240;16.478;2023-05-10T23:30:38;2.17;;;1.70;;
19593;SDS011;9944;48.240;16.478;2023-05-10T23:34:41;1.85;;;1.55;;
19593;SDS011;9944;48.240;16.478;2023-05-10T23:38:47;2.00;;;1.70;;
19593;SDS011;9944;48.240;16.478;2023-05-10T23:42:50;1.90;;;1.55;;
19593;SDS011;9944;48.240;16.478;2023-05-10T23:46:53;2.13;;;1.60;;
19593;SDS011;9944;48.240;16.478;2023-05-10T23:50:56;2.15;;;1.83;;
19593;SDS011;9944;48.240;16.478;2023-05-10T23:55:01;3.30;;;1.90;;
19593;SDS011;9944;48.240;16.478;2023-05-10T23:59:04;2.25;;;1.80;;
